This is the latest recevied weather packets stored in our database for station/object KI4FRU. If no packets are shown the sender has not sent any weather packets the latest 10 day(s).
| Time | Temp. | Humidity | Pressure | Rain* | Wind** | Luminosity | Snow |
|---|---|---|---|---|---|---|---|
| 1777149071 | 17.22° C | 99% | 1049.8 hPa | 0 mm | - | 25 W/m² | - |
| 1777148766 | 17.22° C | 99% | 1049.4 hPa | 0 mm | - | 19 W/m² | - |
| 1777148463 | 17.22° C | 99% | 1049.4 hPa | 0 mm | - | 42 W/m² | - |
| 1777148159 | 17.22° C | 99% | 1049.2 hPa | 0 mm | - | 46 W/m² | - |
| 1777147855 | 17.78° C | 99% | 1049 hPa | 1.78 mm | - | 72 W/m² | - |
| 1777147551 | 18.33° C | 99% | 1049.1 hPa | 1.78 mm | - | 48 W/m² | - |
| 1777147246 | 18.89° C | 99% | 1049.1 hPa | 0 mm | - | 48 W/m² | - |
| 1777146943 | 18.89° C | 99% | 1048.9 hPa | 1.27 mm | - | 48 W/m² | - |
| 1777146639 | 18.89° C | 99% | 1049 hPa | 1.27 mm | - | 17 W/m² | - |
| 1777146334 | 18.89° C | 99% | 1048.8 hPa | 0 mm | - | 21 W/m² | - |
| 1777146031 | 18.89° C | 99% | 1048.6 hPa | 1.78 mm | - | 29 W/m² | - |
| 1777145727 | 19.44° C | 99% | 1048.6 hPa | 4.83 mm | - | 18 W/m² | - |
| 1777145423 | 19.44° C | 99% | 1048.5 hPa | 3.05 mm | - | 26 W/m² | - |
| 1777145118 | 19.44° C | 99% | 1048.4 hPa | 0 mm | - | 36 W/m² | - |
| 1777144814 | 19.44° C | 99% | 1048.3 hPa | 0 mm | - | 52 W/m² | - |
| 1777144512 | 20° C | 99% | 1048.4 hPa | 3.05 mm | - | 50 W/m² | - |
| 1777144209 | 21.67° C | 93% | 1048.5 hPa | 3.05 mm | - | 47 W/m² | - |
| 1777143905 | 24.44° C | 78% | 1048.3 hPa | 0 mm | - | 20 W/m² | - |
| 1777143602 | 25.56° C | 68% | 1048.1 hPa | 0 mm | - | 29 W/m² | - |
| 1777143297 | 26.67° C | 61% | 1047.8 hPa | 0 mm | - | 42 W/m² | - |
| 1777142994 | 27.22° C | 59% | 1047.9 hPa | 0 mm | - | 43 W/m² | - |
| 1777142689 | 27.78° C | 62% | 1047.8 hPa | 0 mm | - | 67 W/m² | - |
| 1777142387 | 27.78° C | 59% | 1048 hPa | 0 mm | - | 97 W/m² | - |
| 1777142082 | 28.89° C | 54% | 1047.8 hPa | 0 mm | - | 108 W/m² | - |
| 1777141778 | 28.89° C | 54% | 1047.7 hPa | 0 mm | - | 179 W/m² | - |
* Rain latest hour (hover to see other rain measurements)
** Current wind speed in m/s (hover to see current wind gust speed)